sensor_id;sensor_type;location;lat;lon;timestamp;P1;durP1;ratioP1;P2;durP2;ratioP2
72201;SDS011;60105;54.956;73.412;2023-07-13T00:00:32;9.38;;;4.35;;
72201;SDS011;60105;54.956;73.412;2023-07-13T00:03:33;8.27;;;3.60;;
72201;SDS011;60105;54.956;73.412;2023-07-13T00:06:35;11.63;;;3.95;;
72201;SDS011;60105;54.956;73.412;2023-07-13T00:09:37;10.63;;;4.07;;
72201;SDS011;60105;54.956;73.412;2023-07-13T00:12:38;9.77;;;4.00;;
72201;SDS011;60105;54.956;73.412;2023-07-13T00:15:40;9.63;;;5.00;;
72201;SDS011;60105;54.956;73.412;2023-07-13T00:18:41;8.97;;;4.90;;
72201;SDS011;60105;54.956;73.412;2023-07-13T00:21:43;7.80;;;4.22;;
72201;SDS011;60105;54.956;73.412;2023-07-13T00:24:44;10.15;;;4.45;;
72201;SDS011;60105;54.956;73.412;2023-07-13T00:27:47;10.97;;;4.47;;
72201;SDS011;60105;54.956;73.412;2023-07-13T00:30:49;7.95;;;4.85;;
72201;SDS011;60105;54.956;73.412;2023-07-13T00:33:50;11.33;;;5.13;;
72201;SDS011;60105;54.956;73.412;2023-07-13T00:37:30;11.23;;;4.68;;
72201;SDS011;60105;54.956;73.412;2023-07-13T00:40:32;9.63;;;4.23;;
72201;SDS011;60105;54.956;73.412;2023-07-13T00:43:33;10.90;;;4.88;;
72201;SDS011;60105;54.956;73.412;2023-07-13T00:46:35;13.02;;;4.90;;
72201;SDS011;60105;54.956;73.412;2023-07-13T00:49:37;8.27;;;4.77;;
72201;SDS011;60105;54.956;73.412;2023-07-13T00:52:39;9.40;;;5.20;;
72201;SDS011;60105;54.956;73.412;2023-07-13T00:55:44;12.52;;;5.00;;
72201;SDS011;60105;54.956;73.412;2023-07-13T00:58:46;10.32;;;5.40;;
72201;SDS011;60105;54.956;73.412;2023-07-13T01:02:30;8.23;;;4.64;;
72201;SDS011;60105;54.956;73.412;2023-07-13T01:05:32;9.60;;;4.95;;
72201;SDS011;60105;54.956;73.412;2023-07-13T01:08:34;11.70;;;5.07;;
72201;SDS011;60105;54.956;73.412;2023-07-13T01:11:36;10.07;;;4.80;;
72201;SDS011;60105;54.956;73.412;2023-07-13T01:14:37;11.67;;;5.00;;
72201;SDS011;60105;54.956;73.412;2023-07-13T01:17:41;8.95;;;4.82;;
72201;SDS011;60105;54.956;73.412;2023-07-13T01:21:03;7.90;;;4.40;;
72201;SDS011;60105;54.956;73.412;2023-07-13T01:24:06;9.93;;;5.00;;
72201;SDS011;60105;54.956;73.412;2023-07-13T01:30:31;10.20;;;4.83;;
72201;SDS011;60105;54.956;73.412;2023-07-13T01:33:32;9.52;;;4.57;;
72201;SDS011;60105;54.956;73.412;2023-07-13T01:36:35;11.93;;;5.00;;
72201;SDS011;60105;54.956;73.412;2023-07-13T01:39:36;13.80;;;5.20;;
72201;SDS011;60105;54.956;73.412;2023-07-13T01:42:38;19.77;;;6.03;;
72201;SDS011;60105;54.956;73.412;2023-07-13T01:45:40;9.90;;;5.45;;
72201;SDS011;60105;54.956;73.412;2023-07-13T01:48:41;11.97;;;4.77;;
72201;SDS011;60105;54.956;73.412;2023-07-13T01:51:42;9.98;;;5.15;;
72201;SDS011;60105;54.956;73.412;2023-07-13T01:54:45;12.07;;;5.70;;
72201;SDS011;60105;54.956;73.412;2023-07-13T01:57:46;14.48;;;6.50;;
72201;SDS011;60105;54.956;73.412;2023-07-13T02:00:48;12.67;;;6.37;;
72201;SDS011;60105;54.956;73.412;2023-07-13T02:03:50;11.98;;;5.43;;
72201;SDS011;60105;54.956;73.412;2023-07-13T02:07:30;10.73;;;6.70;;
72201;SDS011;60105;54.956;73.412;2023-07-13T02:10:31;11.30;;;5.82;;
72201;SDS011;60105;54.956;73.412;2023-07-13T02:13:33;14.63;;;6.43;;
72201;SDS011;60105;54.956;73.412;2023-07-13T02:16:35;14.97;;;7.20;;
72201;SDS011;60105;54.956;73.412;2023-07-13T02:19:36;19.30;;;7.93;;
72201;SDS011;60105;54.956;73.412;2023-07-13T02:22:38;14.70;;;8.05;;
72201;SDS011;60105;54.956;73.412;2023-07-13T02:25:39;17.90;;;8.07;;
72201;SDS011;60105;54.956;73.412;2023-07-13T02:28:41;20.15;;;9.27;;
72201;SDS011;60105;54.956;73.412;2023-07-13T02:31:42;21.52;;;10.77;;
72201;SDS011;60105;54.956;73.412;2023-07-13T02:34:44;25.63;;;11.17;;
72201;SDS011;60105;54.956;73.412;2023-07-13T02:37:45;27.80;;;10.75;;
72201;SDS011;60105;54.956;73.412;2023-07-13T02:40:46;16.93;;;9.57;;
72201;SDS011;60105;54.956;73.412;2023-07-13T02:43:48;19.02;;;9.00;;
72201;SDS011;60105;54.956;73.412;2023-07-13T02:47:31;16.20;;;8.36;;
72201;SDS011;60105;54.956;73.412;2023-07-13T02:50:33;17.93;;;7.93;;
72201;SDS011;60105;54.956;73.412;2023-07-13T02:53:35;16.52;;;7.97;;
72201;SDS011;60105;54.956;73.412;2023-07-13T02:56:36;14.00;;;8.18;;
72201;SDS011;60105;54.956;73.412;2023-07-13T02:59:40;12.23;;;8.10;;
72201;SDS011;60105;54.956;73.412;2023-07-13T03:02:41;14.13;;;8.27;;
72201;SDS011;60105;54.956;73.412;2023-07-13T03:05:43;14.48;;;7.72;;
72201;SDS011;60105;54.956;73.412;2023-07-13T03:08:53;16.30;;;7.60;;
72201;SDS011;60105;54.956;73.412;2023-07-13T03:12:30;19.98;;;7.63;;
72201;SDS011;60105;54.956;73.412;2023-07-13T03:15:48;13.82;;;7.47;;
72201;SDS011;60105;54.956;73.412;2023-07-13T03:18:50;12.15;;;7.47;;
72201;SDS011;60105;54.956;73.412;2023-07-13T03:21:58;22.23;;;8.25;;
72201;SDS011;60105;54.956;73.412;2023-07-13T03:25:00;12.52;;;7.47;;
72201;SDS011;60105;54.956;73.412;2023-07-13T03:28:05;13.30;;;8.13;;
72201;SDS011;60105;54.956;73.412;2023-07-13T03:31:08;11.73;;;7.95;;
72201;SDS011;60105;54.956;73.412;2023-07-13T03:34:11;21.90;;;8.53;;
72201;SDS011;60105;54.956;73.412;2023-07-13T03:40:32;17.67;;;8.55;;
72201;SDS011;60105;54.956;73.412;2023-07-13T03:43:34;14.75;;;8.85;;
72201;SDS011;60105;54.956;73.412;2023-07-13T03:46:35;16.55;;;8.35;;
72201;SDS011;60105;54.956;73.412;2023-07-13T03:49:37;17.98;;;9.20;;
72201;SDS011;60105;54.956;73.412;2023-07-13T03:52:38;20.37;;;9.10;;
72201;SDS011;60105;54.956;73.412;2023-07-13T03:55:39;15.23;;;8.75;;
72201;SDS011;60105;54.956;73.412;2023-07-13T03:58:41;20.45;;;9.25;;
72201;SDS011;60105;54.956;73.412;2023-07-13T04:02:30;17.90;;;9.63;;
72201;SDS011;60105;54.956;73.412;2023-07-13T04:05:31;20.20;;;9.87;;
72201;SDS011;60105;54.956;73.412;2023-07-13T04:08:34;16.35;;;9.45;;
72201;SDS011;60105;54.956;73.412;2023-07-13T04:11:37;17.05;;;10.40;;
72201;SDS011;60105;54.956;73.412;2023-07-13T04:14:38;16.83;;;9.70;;
72201;SDS011;60105;54.956;73.412;2023-07-13T04:17:40;20.05;;;9.93;;
72201;SDS011;60105;54.956;73.412;2023-07-13T04:20:41;21.80;;;9.30;;
72201;SDS011;60105;54.956;73.412;2023-07-13T04:23:42;19.07;;;10.50;;
72201;SDS011;60105;54.956;73.412;2023-07-13T04:26:44;16.90;;;9.57;;
72201;SDS011;60105;54.956;73.412;2023-07-13T04:29:45;16.23;;;10.17;;
72201;SDS011;60105;54.956;73.412;2023-07-13T04:32:47;24.85;;;9.68;;
72201;SDS011;60105;54.956;73.412;2023-07-13T04:35:52;16.77;;;9.53;;
72201;SDS011;60105;54.956;73.412;2023-07-13T04:38:57;16.33;;;9.13;;
72201;SDS011;60105;54.956;73.412;2023-07-13T04:42:30;25.33;;;9.18;;
72201;SDS011;60105;54.956;73.412;2023-07-13T04:45:31;24.67;;;9.68;;
72201;SDS011;60105;54.956;73.412;2023-07-13T04:48:33;19.38;;;9.55;;
72201;SDS011;60105;54.956;73.412;2023-07-13T04:51:35;23.27;;;10.27;;
72201;SDS011;60105;54.956;73.412;2023-07-13T04:54:36;21.70;;;9.25;;
72201;SDS011;60105;54.956;73.412;2023-07-13T04:57:38;15.07;;;8.37;;
72201;SDS011;60105;54.956;73.412;2023-07-13T05:00:39;25.40;;;10.17;;
72201;SDS011;60105;54.956;73.412;2023-07-13T05:03:41;21.10;;;9.10;;
72201;SDS011;60105;54.956;73.412;2023-07-13T05:06:42;17.05;;;8.77;;
72201;SDS011;60105;54.956;73.412;2023-07-13T05:09:43;22.60;;;10.17;;
72201;SDS011;60105;54.956;73.412;2023-07-13T05:12:59;24.70;;;9.83;;
72201;SDS011;60105;54.956;73.412;2023-07-13T05:16:18;19.48;;;10.40;;
72201;SDS011;60105;54.956;73.412;2023-07-13T05:19:20;22.00;;;10.20;;
72201;SDS011;60105;54.956;73.412;2023-07-13T05:22:21;23.40;;;9.37;;
72201;SDS011;60105;54.956;73.412;2023-07-13T05:25:23;27.17;;;10.02;;
72201;SDS011;60105;54.956;73.412;2023-07-13T05:28:25;24.77;;;14.37;;
72201;SDS011;60105;54.956;73.412;2023-07-13T05:31:28;22.10;;;10.98;;
72201;SDS011;60105;54.956;73.412;2023-07-13T05:34:29;21.10;;;9.73;;
72201;SDS011;60105;54.956;73.412;2023-07-13T05:37:31;15.20;;;10.20;;
72201;SDS011;60105;54.956;73.412;2023-07-13T05:40:32;24.77;;;9.88;;
72201;SDS011;60105;54.956;73.412;2023-07-13T05:43:34;18.90;;;10.27;;
72201;SDS011;60105;54.956;73.412;2023-07-13T05:46:35;22.63;;;10.10;;
72201;SDS011;60105;54.956;73.412;2023-07-13T05:49:37;29.52;;;10.60;;
72201;SDS011;60105;54.956;73.412;2023-07-13T05:52:40;23.93;;;10.63;;
72201;SDS011;60105;54.956;73.412;2023-07-13T05:55:42;24.10;;;10.40;;
72201;SDS011;60105;54.956;73.412;2023-07-13T05:58:45;21.83;;;10.57;;
72201;SDS011;60105;54.956;73.412;2023-07-13T06:02:30;24.92;;;10.48;;
72201;SDS011;60105;54.956;73.412;2023-07-13T06:05:31;22.10;;;10.70;;
72201;SDS011;60105;54.956;73.412;2023-07-13T06:08:34;23.03;;;10.17;;
72201;SDS011;60105;54.956;73.412;2023-07-13T06:11:36;29.60;;;11.15;;
72201;SDS011;60105;54.956;73.412;2023-07-13T06:14:38;28.65;;;11.00;;
72201;SDS011;60105;54.956;73.412;2023-07-13T06:17:39;19.43;;;10.13;;
72201;SDS011;60105;54.956;73.412;2023-07-13T06:20:40;27.17;;;10.43;;
72201;SDS011;60105;54.956;73.412;2023-07-13T06:23:42;27.23;;;10.57;;
72201;SDS011;60105;54.956;73.412;2023-07-13T06:26:44;26.92;;;11.27;;
72201;SDS011;60105;54.956;73.412;2023-07-13T06:29:45;26.83;;;10.50;;
72201;SDS011;60105;54.956;73.412;2023-07-13T06:32:47;29.10;;;11.00;;
72201;SDS011;60105;54.956;73.412;2023-07-13T06:35:48;30.25;;;10.82;;
72201;SDS011;60105;54.956;73.412;2023-07-13T06:38:50;31.60;;;11.25;;
72201;SDS011;60105;54.956;73.412;2023-07-13T06:42:30;25.98;;;11.25;;
72201;SDS011;60105;54.956;73.412;2023-07-13T06:45:32;29.60;;;11.18;;
72201;SDS011;60105;54.956;73.412;2023-07-13T06:48:41;20.23;;;9.93;;
72201;SDS011;60105;54.956;73.412;2023-07-13T06:51:42;25.90;;;10.60;;
72201;SDS011;60105;54.956;73.412;2023-07-13T06:54:44;27.00;;;10.57;;
72201;SDS011;60105;54.956;73.412;2023-07-13T06:57:45;29.13;;;9.83;;
72201;SDS011;60105;54.956;73.412;2023-07-13T07:00:49;35.60;;;10.25;;
72201;SDS011;60105;54.956;73.412;2023-07-13T07:03:51;29.45;;;9.75;;
72201;SDS011;60105;54.956;73.412;2023-07-13T07:07:30;19.08;;;9.15;;
72201;SDS011;60105;54.956;73.412;2023-07-13T07:10:35;29.10;;;11.18;;
72201;SDS011;60105;54.956;73.412;2023-07-13T07:13:37;32.67;;;11.30;;
72201;SDS011;60105;54.956;73.412;2023-07-13T07:16:38;30.77;;;11.38;;
72201;SDS011;60105;54.956;73.412;2023-07-13T07:19:39;31.30;;;11.00;;
72201;SDS011;60105;54.956;73.412;2023-07-13T07:22:41;31.02;;;11.40;;
72201;SDS011;60105;54.956;73.412;2023-07-13T07:25:43;26.97;;;10.80;;
72201;SDS011;60105;54.956;73.412;2023-07-13T07:28:45;32.50;;;10.57;;
72201;SDS011;60105;54.956;73.412;2023-07-13T07:32:30;29.33;;;10.89;;
72201;SDS011;60105;54.956;73.412;2023-07-13T07:35:32;26.55;;;10.65;;
72201;SDS011;60105;54.956;73.412;2023-07-13T07:38:33;30.10;;;10.27;;
72201;SDS011;60105;54.956;73.412;2023-07-13T07:41:34;28.02;;;10.10;;
72201;SDS011;60105;54.956;73.412;2023-07-13T07:44:36;27.58;;;9.90;;
72201;SDS011;60105;54.956;73.412;2023-07-13T07:47:39;32.57;;;9.67;;
72201;SDS011;60105;54.956;73.412;2023-07-13T07:50:41;31.73;;;10.18;;
72201;SDS011;60105;54.956;73.412;2023-07-13T07:53:42;30.67;;;10.43;;
72201;SDS011;60105;54.956;73.412;2023-07-13T07:56:44;30.13;;;10.95;;
72201;SDS011;60105;54.956;73.412;2023-07-13T07:59:45;30.15;;;9.43;;
72201;SDS011;60105;54.956;73.412;2023-07-13T08:02:46;29.07;;;11.17;;
72201;SDS011;60105;54.956;73.412;2023-07-13T08:05:48;29.15;;;10.95;;
72201;SDS011;60105;54.956;73.412;2023-07-13T08:08:54;26.48;;;10.23;;
72201;SDS011;60105;54.956;73.412;2023-07-13T08:12:33;23.45;;;9.27;;
72201;SDS011;60105;54.956;73.412;2023-07-13T08:15:38;21.53;;;9.33;;
72201;SDS011;60105;54.956;73.412;2023-07-13T08:18:39;15.55;;;7.15;;
72201;SDS011;60105;54.956;73.412;2023-07-13T08:21:42;20.63;;;8.20;;
72201;SDS011;60105;54.956;73.412;2023-07-13T08:24:44;18.75;;;7.95;;
72201;SDS011;60105;54.956;73.412;2023-07-13T08:27:45;26.93;;;8.70;;
72201;SDS011;60105;54.956;73.412;2023-07-13T08:30:46;22.88;;;9.10;;
72201;SDS011;60105;54.956;73.412;2023-07-13T08:33:50;17.87;;;7.50;;
72201;SDS011;60105;54.956;73.412;2023-07-13T08:37:30;16.25;;;7.40;;
72201;SDS011;60105;54.956;73.412;2023-07-13T08:40:31;17.70;;;7.78;;
72201;SDS011;60105;54.956;73.412;2023-07-13T08:43:36;16.30;;;7.57;;
72201;SDS011;60105;54.956;73.412;2023-07-13T08:46:38;17.52;;;7.00;;
72201;SDS011;60105;54.956;73.412;2023-07-13T08:49:41;24.25;;;8.80;;
72201;SDS011;60105;54.956;73.412;2023-07-13T08:52:45;21.48;;;8.48;;
72201;SDS011;60105;54.956;73.412;2023-07-13T08:55:47;23.93;;;8.70;;
72201;SDS011;60105;54.956;73.412;2023-07-13T08:58:53;23.30;;;8.88;;
72201;SDS011;60105;54.956;73.412;2023-07-13T09:05:49;20.70;;;9.60;;
72201;SDS011;60105;54.956;73.412;2023-07-13T09:08:58;22.73;;;9.03;;
72201;SDS011;60105;54.956;73.412;2023-07-13T09:15:35;21.05;;;8.40;;
72201;SDS011;60105;54.956;73.412;2023-07-13T09:18:45;14.37;;;6.20;;
72201;SDS011;60105;54.956;73.412;2023-07-13T09:21:58;9.96;;;5.04;;
72201;SDS011;60105;54.956;73.412;2023-07-13T09:25:06;11.38;;;5.15;;
72201;SDS011;60105;54.956;73.412;2023-07-13T09:28:34;12.30;;;5.32;;
72201;SDS011;60105;54.956;73.412;2023-07-13T09:31:43;11.40;;;5.27;;
72201;SDS011;60105;54.956;73.412;2023-07-13T09:34:52;10.05;;;4.63;;
72201;SDS011;60105;54.956;73.412;2023-07-13T09:38:14;11.20;;;4.78;;
72201;SDS011;60105;54.956;73.412;2023-07-13T09:41:23;10.00;;;4.60;;
72201;SDS011;60105;54.956;73.412;2023-07-13T09:44:34;9.02;;;4.53;;
72201;SDS011;60105;54.956;73.412;2023-07-13T09:47:39;13.10;;;4.43;;
72201;SDS011;60105;54.956;73.412;2023-07-13T09:50:41;10.25;;;4.88;;
72201;SDS011;60105;54.956;73.412;2023-07-13T09:53:43;9.33;;;5.20;;
72201;SDS011;60105;54.956;73.412;2023-07-13T09:56:45;11.98;;;4.85;;
72201;SDS011;60105;54.956;73.412;2023-07-13T09:59:47;10.30;;;4.25;;
72201;SDS011;60105;54.956;73.412;2023-07-13T10:02:57;10.70;;;4.73;;
72201;SDS011;60105;54.956;73.412;2023-07-13T10:06:03;10.43;;;5.35;;
72201;SDS011;60105;54.956;73.412;2023-07-13T10:09:16;9.23;;;4.97;;
72201;SDS011;60105;54.956;73.412;2023-07-13T10:15:36;15.15;;;4.50;;
72201;SDS011;60105;54.956;73.412;2023-07-13T10:18:48;14.87;;;4.70;;
72201;SDS011;60105;54.956;73.412;2023-07-13T10:21:59;11.77;;;4.35;;
72201;SDS011;60105;54.956;73.412;2023-07-13T10:25:02;11.50;;;4.27;;
72201;SDS011;60105;54.956;73.412;2023-07-13T10:28:06;11.43;;;3.85;;
72201;SDS011;60105;54.956;73.412;2023-07-13T10:31:20;8.00;;;4.20;;
72201;SDS011;60105;54.956;73.412;2023-07-13T10:34:22;9.73;;;3.92;;
72201;SDS011;60105;54.956;73.412;2023-07-13T10:40:39;8.00;;;3.95;;
72201;SDS011;60105;54.956;73.412;2023-07-13T10:43:44;12.63;;;4.50;;
72201;SDS011;60105;54.956;73.412;2023-07-13T10:47:30;8.86;;;4.04;;
72201;SDS011;60105;54.956;73.412;2023-07-13T10:50:42;9.77;;;4.82;;
72201;SDS011;60105;54.956;73.412;2023-07-13T10:53:48;9.47;;;4.10;;
72201;SDS011;60105;54.956;73.412;2023-07-13T11:00:31;8.85;;;3.70;;
72201;SDS011;60105;54.956;73.412;2023-07-13T11:03:36;8.17;;;4.30;;
72201;SDS011;60105;54.956;73.412;2023-07-13T11:06:45;14.60;;;4.97;;
72201;SDS011;60105;54.956;73.412;2023-07-13T11:09:57;8.13;;;3.60;;
72201;SDS011;60105;54.956;73.412;2023-07-13T11:12:59;13.10;;;3.13;;
72201;SDS011;60105;54.956;73.412;2023-07-13T11:16:01;8.27;;;3.65;;
72201;SDS011;60105;54.956;73.412;2023-07-13T11:22:21;11.10;;;3.80;;
72201;SDS011;60105;54.956;73.412;2023-07-13T11:25:44;9.13;;;3.78;;
72201;SDS011;60105;54.956;73.412;2023-07-13T11:28:46;8.38;;;4.13;;
72201;SDS011;60105;54.956;73.412;2023-07-13T11:32:30;6.20;;;3.26;;
72201;SDS011;60105;54.956;73.412;2023-07-13T11:35:36;8.07;;;3.30;;
72201;SDS011;60105;54.956;73.412;2023-07-13T11:38:43;10.43;;;4.05;;
72201;SDS011;60105;54.956;73.412;2023-07-13T11:42:30;9.95;;;4.43;;
72201;SDS011;60105;54.956;73.412;2023-07-13T11:45:31;10.27;;;3.67;;
72201;SDS011;60105;54.956;73.412;2023-07-13T11:48:33;12.13;;;4.57;;
72201;SDS011;60105;54.956;73.412;2023-07-13T11:51:35;9.30;;;3.38;;
72201;SDS011;60105;54.956;73.412;2023-07-13T11:58:30;8.20;;;3.70;;
72201;SDS011;60105;54.956;73.412;2023-07-13T12:01:32;8.95;;;3.80;;
72201;SDS011;60105;54.956;73.412;2023-07-13T12:04:41;8.60;;;3.83;;
72201;SDS011;60105;54.956;73.412;2023-07-13T12:07:43;10.70;;;4.13;;
72201;SDS011;60105;54.956;73.412;2023-07-13T12:10:45;10.07;;;4.40;;
72201;SDS011;60105;54.956;73.412;2023-07-13T12:13:50;7.65;;;3.75;;
72201;SDS011;60105;54.956;73.412;2023-07-13T12:17:30;13.52;;;4.25;;
72201;SDS011;60105;54.956;73.412;2023-07-13T12:20:35;10.00;;;3.57;;
72201;SDS011;60105;54.956;73.412;2023-07-13T12:23:39;14.20;;;4.30;;
72201;SDS011;60105;54.956;73.412;2023-07-13T12:26:41;11.93;;;4.28;;
72201;SDS011;60105;54.956;73.412;2023-07-13T12:29:48;15.10;;;4.33;;
72201;SDS011;60105;54.956;73.412;2023-07-13T12:33:01;10.77;;;5.07;;
72201;SDS011;60105;54.956;73.412;2023-07-13T12:36:11;12.50;;;4.97;;
72201;SDS011;60105;54.956;73.412;2023-07-13T12:39:15;12.90;;;4.25;;
72201;SDS011;60105;54.956;73.412;2023-07-13T12:42:37;9.15;;;4.63;;
72201;SDS011;60105;54.956;73.412;2023-07-13T12:45:58;8.97;;;4.33;;
72201;SDS011;60105;54.956;73.412;2023-07-13T12:49:05;10.93;;;4.55;;
72201;SDS011;60105;54.956;73.412;2023-07-13T12:52:13;11.13;;;3.92;;
72201;SDS011;60105;54.956;73.412;2023-07-13T12:55:17;10.57;;;4.05;;
72201;SDS011;60105;54.956;73.412;2023-07-13T12:58:27;14.50;;;4.53;;
72201;SDS011;60105;54.956;73.412;2023-07-13T13:02:30;18.92;;;4.91;;
72201;SDS011;60105;54.956;73.412;2023-07-13T13:05:37;9.73;;;4.72;;
72201;SDS011;60105;54.956;73.412;2023-07-13T13:08:39;13.50;;;7.10;;
72201;SDS011;60105;54.956;73.412;2023-07-13T13:11:42;12.48;;;4.88;;
72201;SDS011;60105;54.956;73.412;2023-07-13T13:14:44;26.30;;;6.47;;
72201;SDS011;60105;54.956;73.412;2023-07-13T13:17:45;24.35;;;7.00;;
72201;SDS011;60105;54.956;73.412;2023-07-13T13:20:47;20.87;;;5.97;;
72201;SDS011;60105;54.956;73.412;2023-07-13T13:23:48;18.67;;;5.73;;
72201;SDS011;60105;54.956;73.412;2023-07-13T13:27:30;14.57;;;5.63;;
72201;SDS011;60105;54.956;73.412;2023-07-13T13:30:32;16.83;;;5.68;;
72201;SDS011;60105;54.956;73.412;2023-07-13T13:33:33;13.47;;;5.20;;
72201;SDS011;60105;54.956;73.412;2023-07-13T13:36:35;19.38;;;5.88;;
72201;SDS011;60105;54.956;73.412;2023-07-13T13:39:36;13.93;;;5.20;;
72201;SDS011;60105;54.956;73.412;2023-07-13T13:42:39;8.80;;;4.97;;
72201;SDS011;60105;54.956;73.412;2023-07-13T13:45:41;14.17;;;5.00;;
72201;SDS011;60105;54.956;73.412;2023-07-13T13:48:42;14.97;;;5.77;;
72201;SDS011;60105;54.956;73.412;2023-07-13T13:51:44;14.83;;;6.33;;
72201;SDS011;60105;54.956;73.412;2023-07-13T13:54:46;14.40;;;5.60;;
72201;SDS011;60105;54.956;73.412;2023-07-13T13:57:47;12.43;;;4.77;;
72201;SDS011;60105;54.956;73.412;2023-07-13T14:00:49;10.33;;;5.87;;
72201;SDS011;60105;54.956;73.412;2023-07-13T14:03:52;13.32;;;5.63;;
72201;SDS011;60105;54.956;73.412;2023-07-13T14:07:30;13.30;;;5.70;;
72201;SDS011;60105;54.956;73.412;2023-07-13T14:10:31;13.25;;;5.55;;
72201;SDS011;60105;54.956;73.412;2023-07-13T14:13:36;13.25;;;4.95;;
72201;SDS011;60105;54.956;73.412;2023-07-13T14:16:41;13.23;;;5.83;;
72201;SDS011;60105;54.956;73.412;2023-07-13T14:19:48;18.55;;;5.68;;
72201;SDS011;60105;54.956;73.412;2023-07-13T14:22:52;20.00;;;5.87;;
72201;SDS011;60105;54.956;73.412;2023-07-13T14:25:54;28.25;;;5.72;;
72201;SDS011;60105;54.956;73.412;2023-07-13T14:28:56;17.88;;;5.53;;
72201;SDS011;60105;54.956;73.412;2023-07-13T14:32:30;16.00;;;4.32;;
72201;SDS011;60105;54.956;73.412;2023-07-13T14:35:31;16.20;;;4.03;;
72201;SDS011;60105;54.956;73.412;2023-07-13T14:38:33;15.30;;;4.30;;
72201;SDS011;60105;54.956;73.412;2023-07-13T14:41:35;11.10;;;4.00;;
72201;SDS011;60105;54.956;73.412;2023-07-13T14:44:37;13.03;;;3.73;;
72201;SDS011;60105;54.956;73.412;2023-07-13T14:47:39;9.00;;;3.97;;
72201;SDS011;60105;54.956;73.412;2023-07-13T14:50:41;8.63;;;3.58;;
72201;SDS011;60105;54.956;73.412;2023-07-13T14:53:42;12.93;;;3.87;;
72201;SDS011;60105;54.956;73.412;2023-07-13T14:56:44;6.10;;;3.72;;
72201;SDS011;60105;54.956;73.412;2023-07-13T14:59:46;15.73;;;3.90;;
72201;SDS011;60105;54.956;73.412;2023-07-13T15:02:49;13.87;;;4.20;;
72201;SDS011;60105;54.956;73.412;2023-07-13T15:05:53;9.35;;;4.00;;
72201;SDS011;60105;54.956;73.412;2023-07-13T15:08:55;10.33;;;4.10;;
72201;SDS011;60105;54.956;73.412;2023-07-13T15:12:30;10.15;;;4.68;;
72201;SDS011;60105;54.956;73.412;2023-07-13T15:15:31;12.07;;;3.85;;
72201;SDS011;60105;54.956;73.412;2023-07-13T15:18:34;11.87;;;4.33;;
72201;SDS011;60105;54.956;73.412;2023-07-13T15:21:40;10.02;;;4.40;;
72201;SDS011;60105;54.956;73.412;2023-07-13T15:24:42;9.87;;;4.50;;
72201;SDS011;60105;54.956;73.412;2023-07-13T15:27:44;9.03;;;4.97;;
72201;SDS011;60105;54.956;73.412;2023-07-13T15:30:47;11.35;;;4.38;;
72201;SDS011;60105;54.956;73.412;2023-07-13T15:33:50;10.52;;;4.20;;
72201;SDS011;60105;54.956;73.412;2023-07-13T15:37:30;9.52;;;4.22;;
72201;SDS011;60105;54.956;73.412;2023-07-13T15:40:31;8.23;;;4.47;;
72201;SDS011;60105;54.956;73.412;2023-07-13T15:43:34;13.23;;;4.73;;
72201;SDS011;60105;54.956;73.412;2023-07-13T15:46:35;12.27;;;4.90;;
72201;SDS011;60105;54.956;73.412;2023-07-13T15:49:37;13.52;;;4.97;;
72201;SDS011;60105;54.956;73.412;2023-07-13T15:52:39;12.83;;;3.80;;
72201;SDS011;60105;54.956;73.412;2023-07-13T15:55:42;11.95;;;3.85;;
72201;SDS011;60105;54.956;73.412;2023-07-13T15:58:44;9.03;;;4.10;;
72201;SDS011;60105;54.956;73.412;2023-07-13T16:01:45;10.50;;;4.65;;
72201;SDS011;60105;54.956;73.412;2023-07-13T16:04:47;11.63;;;4.50;;
72201;SDS011;60105;54.956;73.412;2023-07-13T16:07:49;8.95;;;4.13;;
72201;SDS011;60105;54.956;73.412;2023-07-13T16:10:53;12.68;;;5.13;;
72201;SDS011;60105;54.956;73.412;2023-07-13T16:13:54;18.02;;;6.18;;
72201;SDS011;60105;54.956;73.412;2023-07-13T16:17:30;13.65;;;6.63;;
72201;SDS011;60105;54.956;73.412;2023-07-13T16:20:34;12.32;;;6.60;;
72201;SDS011;60105;54.956;73.412;2023-07-13T16:23:35;10.05;;;6.68;;
72201;SDS011;60105;54.956;73.412;2023-07-13T16:26:37;20.87;;;6.43;;
72201;SDS011;60105;54.956;73.412;2023-07-13T16:29:43;20.73;;;6.30;;
72201;SDS011;60105;54.956;73.412;2023-07-13T16:32:45;15.70;;;7.00;;
72201;SDS011;60105;54.956;73.412;2023-07-13T16:35:47;17.67;;;7.78;;
72201;SDS011;60105;54.956;73.412;2023-07-13T16:38:48;20.13;;;7.80;;
72201;SDS011;60105;54.956;73.412;2023-07-13T16:42:30;19.33;;;7.32;;
72201;SDS011;60105;54.956;73.412;2023-07-13T16:45:32;17.95;;;6.32;;
72201;SDS011;60105;54.956;73.412;2023-07-13T16:48:39;16.63;;;6.50;;
72201;SDS011;60105;54.956;73.412;2023-07-13T16:51:41;15.88;;;6.60;;
72201;SDS011;60105;54.956;73.412;2023-07-13T16:54:42;11.03;;;5.93;;
72201;SDS011;60105;54.956;73.412;2023-07-13T16:57:45;14.15;;;6.38;;
72201;SDS011;60105;54.956;73.412;2023-07-13T17:00:48;15.82;;;6.57;;
72201;SDS011;60105;54.956;73.412;2023-07-13T17:03:52;15.07;;;7.00;;
72201;SDS011;60105;54.956;73.412;2023-07-13T17:07:30;11.02;;;6.50;;
72201;SDS011;60105;54.956;73.412;2023-07-13T17:10:31;14.77;;;6.30;;
72201;SDS011;60105;54.956;73.412;2023-07-13T17:13:32;14.65;;;7.03;;
72201;SDS011;60105;54.956;73.412;2023-07-13T17:16:36;20.35;;;6.65;;
72201;SDS011;60105;54.956;73.412;2023-07-13T17:19:37;14.87;;;6.70;;
72201;SDS011;60105;54.956;73.412;2023-07-13T17:22:39;17.52;;;6.65;;
72201;SDS011;60105;54.956;73.412;2023-07-13T17:25:40;20.63;;;6.97;;
72201;SDS011;60105;54.956;73.412;2023-07-13T17:28:42;19.42;;;6.68;;
72201;SDS011;60105;54.956;73.412;2023-07-13T17:31:43;12.10;;;6.60;;
72201;SDS011;60105;54.956;73.412;2023-07-13T17:34:48;15.50;;;6.55;;
72201;SDS011;60105;54.956;73.412;2023-07-13T17:37:56;14.20;;;6.28;;
72201;SDS011;60105;54.956;73.412;2023-07-13T17:40:59;16.93;;;5.90;;
72201;SDS011;60105;54.956;73.412;2023-07-13T17:44:02;16.53;;;5.63;;
72201;SDS011;60105;54.956;73.412;2023-07-13T17:47:30;8.25;;;4.55;;
72201;SDS011;60105;54.956;73.412;2023-07-13T17:50:32;13.63;;;5.03;;
72201;SDS011;60105;54.956;73.412;2023-07-13T17:53:38;13.05;;;5.25;;
72201;SDS011;60105;54.956;73.412;2023-07-13T17:56:43;12.52;;;5.80;;
72201;SDS011;60105;54.956;73.412;2023-07-13T17:59:44;12.23;;;5.57;;
72201;SDS011;60105;54.956;73.412;2023-07-13T18:02:45;15.87;;;4.97;;
72201;SDS011;60105;54.956;73.412;2023-07-13T18:05:47;10.98;;;5.85;;
72201;SDS011;60105;54.956;73.412;2023-07-13T18:08:53;12.65;;;5.80;;
72201;SDS011;60105;54.956;73.412;2023-07-13T18:12:30;12.70;;;5.75;;
72201;SDS011;60105;54.956;73.412;2023-07-13T18:15:35;8.70;;;5.47;;
72201;SDS011;60105;54.956;73.412;2023-07-13T18:18:37;10.47;;;6.13;;
72201;SDS011;60105;54.956;73.412;2023-07-13T18:21:38;13.88;;;5.78;;
72201;SDS011;60105;54.956;73.412;2023-07-13T18:24:40;11.30;;;5.60;;
72201;SDS011;60105;54.956;73.412;2023-07-13T18:27:42;11.10;;;5.93;;
72201;SDS011;60105;54.956;73.412;2023-07-13T18:30:44;10.57;;;5.68;;
72201;SDS011;60105;54.956;73.412;2023-07-13T18:33:49;12.75;;;5.60;;
72201;SDS011;60105;54.956;73.412;2023-07-13T18:37:30;12.38;;;5.75;;
72201;SDS011;60105;54.956;73.412;2023-07-13T18:40:32;10.20;;;5.95;;